createdAt,value
2023-01-19T00:02:30.603Z,84.17
2023-01-19T00:05:16.707Z,84.30
2023-01-19T00:07:46.207Z,84.18
2023-01-19T00:10:15.113Z,84.21
2023-01-19T00:12:44.570Z,83.96
2023-01-19T00:15:15.341Z,83.94
2023-01-19T00:17:55.604Z,83.65
2023-01-19T00:20:25.213Z,83.64
2023-01-19T00:22:54.485Z,83.91
2023-01-19T00:25:23.710Z,83.83
2023-01-19T00:27:57.051Z,83.81
2023-01-19T00:30:31.107Z,84.01
2023-01-19T00:33:00.662Z,84.08
2023-01-19T00:35:30.068Z,84.27
2023-01-19T00:38:02.282Z,84.57
2023-01-19T00:41:02.321Z,84.48
2023-01-19T00:43:31.013Z,84.63
2023-01-19T00:46:02.279Z,84.99
2023-01-19T00:48:35.901Z,84.54
2023-01-19T00:51:07.411Z,84.00
2023-01-19T00:53:36.624Z,84.00
2023-01-19T00:56:09.188Z,83.96
2023-01-19T00:58:38.080Z,84.18
2023-01-19T01:01:09.164Z,83.84
2023-01-19T01:03:38.836Z,83.84
2023-01-19T01:06:14.279Z,83.68
2023-01-19T01:08:45.832Z,83.76
2023-01-19T01:11:15.032Z,83.65
2023-01-19T01:13:51.092Z,83.70
2023-01-19T01:16:28.337Z,83.81
2023-01-19T01:19:08.245Z,84.35
2023-01-19T01:21:38.045Z,84.15
2023-01-19T01:24:08.574Z,84.63
2023-01-19T01:26:41.054Z,85.34
2023-01-19T01:29:10.432Z,85.11
2023-01-19T01:31:41.299Z,84.85
2023-01-19T01:34:10.386Z,84.35
2023-01-19T01:36:44.811Z,84.08
2023-01-19T01:39:14.328Z,84.27
2023-01-19T01:41:47.080Z,83.55
2023-01-19T01:44:50.215Z,84.54
2023-01-19T01:47:30.142Z,85.03
2023-01-19T01:50:11.503Z,84.69
2023-01-19T01:53:06.545Z,84.14
2023-01-19T01:55:42.697Z,84.07
2023-01-19T01:58:13.222Z,84.40
2023-01-19T02:01:00.377Z,84.48
2023-01-19T02:03:41.799Z,84.00
2023-01-19T02:06:12.105Z,84.21
2023-01-19T02:09:02.429Z,83.86
2023-01-19T02:12:07.299Z,84.32
2023-01-19T02:14:37.614Z,83.59
2023-01-19T02:17:09.796Z,83.52
2023-01-19T02:19:43.673Z,83.44
2023-01-19T02:22:17.185Z,83.24
2023-01-19T02:24:47.931Z,83.52
2023-01-19T02:27:17.734Z,83.45
2023-01-19T02:30:12.083Z,82.80
2023-01-19T02:33:15.888Z,83.58
2023-01-19T02:35:58.861Z,83.35
2023-01-19T02:38:31.124Z,83.29
2023-01-19T02:41:03.499Z,83.35
2023-01-19T02:43:34.954Z,83.26
2023-01-19T02:46:05.359Z,83.12
2023-01-19T02:48:40.497Z,83.28
2023-01-19T02:51:17.295Z,82.88
2023-01-19T02:54:08.201Z,83.34
2023-01-19T02:56:52.993Z,83.81
2023-01-19T02:59:30.359Z,83.86
2023-01-19T03:02:20.662Z,84.58
2023-01-19T03:05:01.628Z,84.70
2023-01-19T03:07:39.014Z,84.63
2023-01-19T03:10:19.160Z,84.65
2023-01-19T03:12:56.114Z,85.19
2023-01-19T03:15:28.862Z,85.72
2023-01-19T03:18:05.303Z,85.46
2023-01-19T03:20:35.331Z,85.53
2023-01-19T03:23:08.514Z,85.72
2023-01-19T03:25:41.093Z,85.82
2023-01-19T03:28:58.735Z,86.08
2023-01-19T03:31:58.170Z,86.87
2023-01-19T03:34:55.791Z,88.31
2023-01-19T03:37:26.292Z,88.50
2023-01-19T03:40:13.144Z,88.09
2023-01-19T03:42:42.649Z,89.10
2023-01-19T03:45:14.567Z,89.11
2023-01-19T03:47:43.825Z,88.85
2023-01-19T03:50:16.469Z,88.81
2023-01-19T03:52:45.558Z,88.40
2023-01-19T03:55:15.291Z,88.72
2023-01-19T03:57:45.524Z,88.47
2023-01-19T04:00:17.649Z,88.22
2023-01-19T04:02:47.331Z,87.85
2023-01-19T04:05:19.883Z,87.67
2023-01-19T04:07:53.686Z,87.65
2023-01-19T04:10:24.782Z,87.71
2023-01-19T04:12:59.905Z,88.10
2023-01-19T04:15:31.420Z,88.27
2023-01-19T04:18:03.189Z,88.24
2023-01-19T04:20:32.277Z,88.16
2023-01-19T04:23:02.653Z,88.94
2023-01-19T04:25:34.773Z,88.56
2023-01-19T04:28:04.278Z,87.79
2023-01-19T04:30:37.629Z,88.45
2023-01-19T04:33:06.768Z,88.22
2023-01-19T04:35:37.210Z,88.64
2023-01-19T04:38:09.442Z,88.48
2023-01-19T04:40:38.674Z,88.62
2023-01-19T04:43:08.070Z,88.23
2023-01-19T04:45:41.968Z,88.21
2023-01-19T04:48:14.390Z,88.45
2023-01-19T04:50:43.757Z,88.55
2023-01-19T04:53:14.082Z,88.55
2023-01-19T04:55:43.488Z,88.67
2023-01-19T04:58:12.931Z,88.88
2023-01-19T05:00:54.502Z,88.75
2023-01-19T05:03:25.807Z,89.00
2023-01-19T05:05:56.150Z,88.51
2023-01-19T05:08:53.506Z,88.45
2023-01-19T05:11:22.790Z,89.07
2023-01-19T05:13:52.013Z,89.00
2023-01-19T05:16:22.557Z,89.92
2023-01-19T05:18:52.772Z,89.38
2023-01-19T05:21:23.923Z,89.40
2023-01-19T05:24:05.620Z,89.25
2023-01-19T05:26:54.727Z,89.43
2023-01-19T05:30:30.428Z,88.42
2023-01-19T05:33:01.304Z,89.01
2023-01-19T05:35:36.227Z,88.81
2023-01-19T05:38:07.856Z,88.45
2023-01-19T05:40:37.360Z,88.19
2023-01-19T05:43:06.454Z,87.90
2023-01-19T05:45:36.139Z,87.36
2023-01-19T05:48:08.719Z,87.42
2023-01-19T05:50:49.743Z,88.22
2023-01-19T05:53:19.019Z,87.68
2023-01-19T05:55:48.199Z,88.21
2023-01-19T05:58:17.429Z,88.57
2023-01-19T06:00:59.470Z,88.19
2023-01-19T06:03:30.310Z,88.83
2023-01-19T06:06:02.937Z,88.41
2023-01-19T06:08:32.682Z,89.11
2023-01-19T06:11:24.686Z,88.88
2023-01-19T06:14:41.092Z,88.43
2023-01-19T06:17:10.391Z,88.22
2023-01-19T06:19:44.811Z,87.89
2023-01-19T06:22:14.318Z,88.04
2023-01-19T06:24:45.666Z,87.59
2023-01-19T06:27:14.644Z,87.75
2023-01-19T06:29:43.747Z,87.33
2023-01-19T06:32:13.285Z,87.02
2023-01-19T06:34:47.277Z,87.30
2023-01-19T06:37:18.519Z,87.82
2023-01-19T06:39:47.624Z,88.28
2023-01-19T06:42:19.683Z,87.72
2023-01-19T06:44:49.152Z,88.03
2023-01-19T06:47:19.929Z,88.90
2023-01-19T06:49:50.353Z,88.29
2023-01-19T06:52:20.768Z,88.87
2023-01-19T06:54:49.874Z,89.03
2023-01-19T06:57:19.074Z,89.08
2023-01-19T06:59:49.194Z,89.29
2023-01-19T07:02:26.255Z,88.86
2023-01-19T07:05:00.895Z,89.15
2023-01-19T07:07:32.969Z,88.60
2023-01-19T07:10:02.492Z,89.05
2023-01-19T07:12:34.630Z,88.98
2023-01-19T07:15:25.459Z,88.10
2023-01-19T07:17:55.161Z,87.54
2023-01-19T07:20:25.588Z,87.65
2023-01-19T07:22:58.737Z,87.58
2023-01-19T07:25:28.504Z,87.41
2023-01-19T07:27:59.026Z,87.88
2023-01-19T07:30:34.894Z,87.58
2023-01-19T07:33:11.963Z,87.29
2023-01-19T07:35:49.925Z,87.20
2023-01-19T07:38:19.985Z,87.20
2023-01-19T07:40:49.390Z,87.39
2023-01-19T07:43:23.299Z,87.17
2023-01-19T07:46:01.611Z,87.36
2023-01-19T07:51:57.467Z,87.39
2023-01-19T07:54:26.963Z,87.16
2023-01-19T07:57:02.310Z,86.72
2023-01-19T07:59:34.575Z,87.25
2023-01-19T08:02:03.710Z,86.19
2023-01-19T08:04:33.041Z,85.94
2023-01-19T08:07:23.226Z,85.89
2023-01-19T08:09:52.363Z,85.57
2023-01-19T08:12:21.463Z,85.30
2023-01-19T08:14:50.862Z,84.84
2023-01-19T08:17:20.046Z,84.96
2023-01-19T08:19:49.263Z,84.85
2023-01-19T08:22:20.209Z,85.56
2023-01-19T08:24:50.429Z,85.20
2023-01-19T08:27:30.376Z,85.11
2023-01-19T08:29:59.473Z,85.17
2023-01-19T08:32:29.080Z,85.11
2023-01-19T08:34:58.284Z,84.37
2023-01-19T08:37:34.031Z,84.29
2023-01-19T08:40:03.595Z,84.14
2023-01-19T08:42:44.827Z,84.57
2023-01-19T08:45:16.893Z,84.89
2023-01-19T08:47:45.787Z,84.84
2023-01-19T08:50:20.959Z,85.50
2023-01-19T08:52:51.649Z,84.93
2023-01-19T08:55:21.049Z,84.72
2023-01-19T08:58:13.811Z,85.04
2023-01-19T09:00:52.847Z,84.33
2023-01-19T09:03:23.163Z,84.35
2023-01-19T09:05:52.565Z,83.83
2023-01-19T09:08:23.606Z,84.01
2023-01-19T09:10:55.365Z,84.07
2023-01-19T09:13:25.078Z,84.11
2023-01-19T09:15:55.149Z,84.33
2023-01-19T09:18:25.226Z,83.83
2023-01-19T09:20:55.218Z,84.68
2023-01-19T09:23:29.063Z,84.59
2023-01-19T09:25:59.593Z,83.76
2023-01-19T09:28:41.051Z,82.96
2023-01-19T09:31:11.098Z,83.29
2023-01-19T09:33:49.491Z,83.52
2023-01-19T09:36:19.729Z,82.86
2023-01-19T09:38:50.666Z,82.43
2023-01-19T09:41:23.038Z,82.43
2023-01-19T09:44:10.921Z,82.18
2023-01-19T09:46:45.456Z,81.73
2023-01-19T09:49:18.275Z,81.08
2023-01-19T09:51:49.313Z,80.56
2023-01-19T09:54:23.324Z,80.61
2023-01-19T09:56:55.599Z,79.84
2023-01-19T09:59:25.926Z,79.48
2023-01-19T10:02:07.947Z,78.57
2023-01-19T10:04:57.407Z,77.54
2023-01-19T10:07:34.581Z,79.19
2023-01-19T10:13:36.677Z,78.27
2023-01-19T10:16:15.202Z,77.83
2023-01-19T10:18:48.077Z,77.89
2023-01-19T10:21:22.312Z,76.95
2023-01-19T10:23:54.866Z,77.43
2023-01-19T10:27:13.139Z,76.85
2023-01-19T10:29:45.810Z,76.96
2023-01-19T10:32:17.874Z,76.50
2023-01-19T10:34:49.838Z,76.54
2023-01-19T10:37:31.191Z,76.51
2023-01-19T10:40:10.455Z,75.77
2023-01-19T10:42:43.462Z,75.90
2023-01-19T10:45:19.407Z,75.90
2023-01-19T10:47:49.750Z,75.44
2023-01-19T10:50:25.713Z,74.85
2023-01-19T10:53:22.550Z,74.85
2023-01-19T10:56:12.412Z,75.66
2023-01-19T10:58:41.820Z,76.03
2023-01-19T11:01:21.852Z,74.83
2023-01-19T11:03:51.505Z,74.05
2023-01-19T11:06:27.737Z,75.37
2023-01-19T11:09:17.271Z,74.94
2023-01-19T11:11:49.279Z,74.65
2023-01-19T11:14:21.741Z,73.79
2023-01-19T11:16:56.702Z,73.72
2023-01-19T11:19:32.043Z,74.17
2023-01-19T11:22:22.507Z,73.07
2023-01-19T11:25:02.243Z,73.79
2023-01-19T11:27:33.808Z,73.82
2023-01-19T11:30:10.104Z,73.63
2023-01-19T11:32:49.678Z,74.09
2023-01-19T11:35:43.005Z,74.92
2023-01-19T11:38:19.542Z,73.99
2023-01-19T11:40:56.685Z,74.04
2023-01-19T11:43:48.211Z,73.54
2023-01-19T11:46:29.922Z,74.35
2023-01-19T11:49:03.792Z,74.28
2023-01-19T11:51:38.412Z,73.60
2023-01-19T11:54:21.431Z,72.51
2023-01-19T11:56:52.284Z,72.02
2023-01-19T11:59:23.533Z,73.17
2023-01-19T12:01:56.901Z,71.64
2023-01-19T12:04:33.274Z,72.55
2023-01-19T12:07:08.628Z,72.10
2023-01-19T12:09:42.981Z,71.00
2023-01-19T12:12:21.045Z,71.49
2023-01-19T12:14:57.528Z,71.39
2023-01-19T12:17:28.663Z,71.08
2023-01-19T12:20:05.851Z,71.14
2023-01-19T12:22:49.792Z,71.21
2023-01-19T12:25:49.516Z,70.78
2023-01-19T12:28:33.964Z,69.96
2023-01-19T12:31:16.736Z,69.01
2023-01-19T12:37:48.387Z,68.96
2023-01-19T12:40:31.454Z,69.01
2023-01-19T12:43:03.047Z,69.73
2023-01-19T12:45:33.947Z,69.96
2023-01-19T12:48:03.385Z,70.04
2023-01-19T12:50:42.751Z,69.28
2023-01-19T12:53:22.847Z,69.76
2023-01-19T12:56:04.062Z,69.52
2023-01-19T12:58:34.807Z,70.49
2023-01-19T13:01:18.828Z,70.43
2023-01-19T13:04:00.514Z,68.67
2023-01-19T13:07:08.853Z,69.38
2023-01-19T13:09:38.848Z,69.37
2023-01-19T13:12:24.864Z,69.63
2023-01-19T13:15:35.957Z,69.96
2023-01-19T13:18:09.132Z,68.59
2023-01-19T13:20:51.755Z,67.88
2023-01-19T13:23:24.941Z,67.38
2023-01-19T13:26:16.370Z,68.50
2023-01-19T13:28:49.244Z,67.57
2023-01-19T13:31:19.689Z,67.50
2023-01-19T13:33:52.253Z,67.89
2023-01-19T13:36:26.981Z,66.24
2023-01-19T13:38:57.988Z,66.62
2023-01-19T13:41:30.503Z,66.42
2023-01-19T13:44:03.850Z,66.66
2023-01-19T13:46:34.002Z,65.92
2023-01-19T13:49:17.037Z,65.92
2023-01-19T13:51:47.514Z,66.26
2023-01-19T13:54:18.873Z,66.57
2023-01-19T13:56:50.329Z,66.59
2023-01-19T13:59:20.803Z,66.84
2023-01-19T14:01:51.575Z,66.35
2023-01-19T14:04:28.666Z,66.76
2023-01-19T14:06:59.459Z,66.88
2023-01-19T14:09:28.943Z,67.12
2023-01-19T14:12:17.027Z,67.33
2023-01-19T14:14:53.416Z,66.29
2023-01-19T14:17:29.223Z,66.23
2023-01-19T14:20:37.039Z,66.30
2023-01-19T14:23:54.256Z,66.94
2023-01-19T14:25:59.797Z,67.43
2023-01-19T14:28:31.552Z,68.37
2023-01-19T14:31:03.581Z,67.96
2023-01-19T14:33:43.879Z,67.08
2023-01-19T14:36:26.596Z,68.21
2023-01-19T14:38:57.194Z,67.95
2023-01-19T14:41:37.594Z,67.72
2023-01-19T14:44:11.236Z,68.00
2023-01-19T14:46:50.286Z,68.16
2023-01-19T14:49:24.951Z,68.27
2023-01-19T14:51:54.354Z,66.61
2023-01-19T14:54:30.423Z,67.59
2023-01-19T14:57:13.536Z,67.17
2023-01-19T14:59:47.043Z,67.57
2023-01-19T15:02:40.595Z,67.28
2023-01-19T15:05:54.127Z,68.59
2023-01-19T15:08:33.588Z,67.63
2023-01-19T15:11:11.645Z,68.42
2023-01-19T15:13:56.882Z,67.49
2023-01-19T15:16:28.895Z,67.88
2023-01-19T15:19:09.859Z,67.68
2023-01-19T15:21:42.698Z,68.23
2023-01-19T15:24:12.000Z,67.92
2023-01-19T15:26:44.469Z,67.81
2023-01-19T15:29:24.011Z,68.00
2023-01-19T15:31:53.559Z,68.03
2023-01-19T15:34:24.866Z,67.97
2023-01-19T15:36:54.272Z,68.05
2023-01-19T15:39:26.446Z,68.86
2023-01-19T15:41:56.147Z,68.13
2023-01-19T15:44:25.456Z,67.94
2023-01-19T15:46:58.234Z,67.94
2023-01-19T15:49:31.019Z,68.01
2023-01-19T15:51:59.810Z,68.06
2023-01-19T15:54:29.286Z,68.22
2023-01-19T15:57:01.174Z,68.66
2023-01-19T15:59:33.265Z,69.11
2023-01-19T16:02:27.965Z,68.97
2023-01-19T16:04:58.980Z,68.67
2023-01-19T16:07:34.793Z,69.30
2023-01-19T16:10:06.625Z,69.15
2023-01-19T16:12:45.213Z,69.19
2023-01-19T16:15:18.710Z,69.06
2023-01-19T16:17:52.481Z,69.48
2023-01-19T16:20:22.936Z,69.98
2023-01-19T16:23:22.264Z,69.56
2023-01-19T16:25:57.901Z,69.79
2023-01-19T16:28:28.841Z,70.27
2023-01-19T16:30:57.959Z,70.47
2023-01-19T16:33:27.955Z,70.83
2023-01-19T16:35:58.675Z,71.22
2023-01-19T16:38:27.995Z,71.47
2023-01-19T16:40:57.472Z,70.86
2023-01-19T16:43:28.413Z,71.15
2023-01-19T16:46:04.606Z,71.28
2023-01-19T16:48:39.143Z,71.49
2023-01-19T16:51:14.061Z,71.10
2023-01-19T16:53:43.569Z,71.95
2023-01-19T16:56:15.830Z,71.78
2023-01-19T16:58:45.565Z,71.23
2023-01-19T17:01:20.477Z,71.56
2023-01-19T17:03:50.119Z,72.01
2023-01-19T17:06:25.642Z,71.31
2023-01-19T17:08:56.678Z,71.90
2023-01-19T17:11:32.229Z,71.65
2023-01-19T17:14:03.786Z,71.83
2023-01-19T17:16:35.047Z,70.99
2023-01-19T17:19:05.534Z,70.78
2023-01-19T17:21:36.795Z,71.30
2023-01-19T17:24:06.164Z,71.39
2023-01-19T17:26:35.718Z,70.98
2023-01-19T17:29:10.040Z,71.25
2023-01-19T17:34:50.727Z,71.04
2023-01-19T17:37:21.305Z,70.36
2023-01-19T17:40:03.064Z,70.72
2023-01-19T17:42:32.638Z,70.82
2023-01-19T17:45:02.691Z,70.98
2023-01-19T17:47:33.815Z,71.31
2023-01-19T17:50:06.813Z,71.02
2023-01-19T17:52:38.362Z,71.40
2023-01-19T17:55:08.890Z,71.45
2023-01-19T17:57:43.909Z,71.39
2023-01-19T18:00:17.327Z,71.39
2023-01-19T18:02:46.831Z,71.31
2023-01-19T18:05:16.647Z,72.40
2023-01-19T18:07:47.994Z,72.41
2023-01-19T18:10:17.702Z,72.53
2023-01-19T18:12:46.678Z,72.10
2023-01-19T18:15:16.990Z,72.11
2023-01-19T18:17:49.291Z,72.41
2023-01-19T18:20:21.055Z,72.80
2023-01-19T18:22:51.988Z,71.97
2023-01-19T18:25:21.702Z,71.71
2023-01-19T18:27:51.615Z,71.31
2023-01-19T18:30:21.582Z,71.62
2023-01-19T18:32:54.213Z,71.57
2023-01-19T18:35:27.936Z,72.02
2023-01-19T18:37:58.965Z,72.50
2023-01-19T18:40:28.160Z,71.79
2023-01-19T18:42:57.015Z,71.35
2023-01-19T18:45:26.559Z,71.51
2023-01-19T18:47:56.279Z,71.81
2023-01-19T18:50:28.504Z,71.79
2023-01-19T18:52:59.479Z,71.66
2023-01-19T18:55:28.886Z,71.45
2023-01-19T18:58:07.605Z,71.45
2023-01-19T19:00:37.215Z,71.31
2023-01-19T19:03:10.821Z,71.45
2023-01-19T19:05:39.974Z,71.56
2023-01-19T19:08:13.207Z,71.70
2023-01-19T19:10:42.902Z,69.91
2023-01-19T19:13:14.117Z,70.98
2023-01-19T19:15:44.617Z,70.91
2023-01-19T19:18:15.410Z,70.44
2023-01-19T19:20:44.529Z,70.31
2023-01-19T19:23:15.376Z,70.79
2023-01-19T19:25:44.984Z,71.05
2023-01-19T19:28:26.052Z,71.04
2023-01-19T19:31:04.971Z,71.31
2023-01-19T19:33:34.992Z,71.23
2023-01-19T19:36:04.165Z,71.55
2023-01-19T19:38:36.986Z,71.21
2023-01-19T19:41:09.454Z,71.22
2023-01-19T19:43:38.940Z,71.65
2023-01-19T19:46:12.834Z,71.97
2023-01-19T19:48:44.325Z,72.05
2023-01-19T19:51:19.247Z,72.02
2023-01-19T19:53:51.903Z,71.93
2023-01-19T19:56:30.042Z,71.18
2023-01-19T19:59:01.295Z,71.43
2023-01-19T20:03:39.330Z,71.85
2023-01-19T20:05:56.527Z,72.17
2023-01-19T20:08:46.630Z,71.16
2023-01-19T20:11:25.595Z,71.50
2023-01-19T20:13:56.777Z,71.55
2023-01-19T20:16:26.819Z,70.90
2023-01-19T20:18:58.276Z,71.46
2023-01-19T20:21:28.894Z,71.70
2023-01-19T20:26:56.504Z,70.42
2023-01-19T20:29:26.390Z,70.54
2023-01-19T20:32:09.515Z,70.20
2023-01-19T20:34:40.948Z,70.23
2023-01-19T20:37:10.474Z,70.54
2023-01-19T20:39:50.117Z,69.86
2023-01-19T20:42:20.353Z,70.85
2023-01-19T20:44:49.846Z,70.67
2023-01-19T20:47:18.967Z,70.94
2023-01-19T20:49:58.557Z,71.64
2023-01-19T20:52:27.988Z,71.64
2023-01-19T20:55:21.976Z,71.41
2023-01-19T20:57:50.968Z,70.85
2023-01-19T21:00:20.878Z,70.89
2023-01-19T21:02:49.691Z,70.95
2023-01-19T21:05:19.087Z,70.91
2023-01-19T21:07:49.705Z,70.81
2023-01-19T21:10:19.113Z,70.46
2023-01-19T21:12:48.313Z,70.07
2023-01-19T21:15:19.570Z,70.33
2023-01-19T21:17:48.999Z,70.61
2023-01-19T21:20:44.372Z,70.63
2023-01-19T21:23:14.902Z,70.84
2023-01-19T21:25:51.270Z,71.19
2023-01-19T21:28:20.775Z,71.11
2023-01-19T21:30:51.347Z,71.09
2023-01-19T21:33:21.408Z,71.11
2023-01-19T21:35:58.620Z,71.93
2023-01-19T21:38:30.089Z,72.14
2023-01-19T21:41:00.429Z,72.49
2023-01-19T21:43:32.249Z,71.97
2023-01-19T21:46:13.025Z,71.80
2023-01-19T21:48:46.120Z,71.70
2023-01-19T21:51:37.740Z,71.99
2023-01-19T21:54:09.701Z,71.76
2023-01-19T21:56:39.415Z,72.04
2023-01-19T21:59:08.813Z,71.90
2023-01-19T22:01:39.520Z,71.43
2023-01-19T22:04:17.872Z,71.68
2023-01-19T22:06:46.965Z,72.63
2023-01-19T22:09:16.131Z,72.89
2023-01-19T22:11:45.460Z,71.78
2023-01-19T22:14:14.766Z,71.71
2023-01-19T22:16:45.724Z,71.56
2023-01-19T22:19:17.766Z,71.41
2023-01-19T22:21:46.960Z,71.27
2023-01-19T22:24:22.437Z,71.18
2023-01-19T22:26:51.917Z,71.86
2023-01-19T22:29:21.713Z,72.02
2023-01-19T22:32:04.713Z,72.20
2023-01-19T22:34:36.726Z,72.06
2023-01-19T22:37:07.070Z,72.41
2023-01-19T22:39:36.342Z,72.76
2023-01-19T22:42:08.210Z,72.81
2023-01-19T22:44:37.740Z,72.78
2023-01-19T22:47:10.906Z,72.48
2023-01-19T22:49:49.510Z,73.29
2023-01-19T22:52:26.079Z,72.76
2023-01-19T22:54:56.832Z,72.20
2023-01-19T22:57:26.194Z,71.84
2023-01-19T22:59:55.416Z,71.08
2023-01-19T23:02:26.484Z,71.17
2023-01-19T23:04:57.599Z,71.99
2023-01-19T23:07:27.421Z,72.35
2023-01-19T23:09:56.640Z,72.03
2023-01-19T23:12:31.057Z,71.27
2023-01-19T23:15:00.928Z,71.28
2023-01-19T23:17:37.194Z,71.31
2023-01-19T23:20:07.865Z,71.39
2023-01-19T23:22:41.775Z,72.22
2023-01-19T23:25:11.726Z,71.99
2023-01-19T23:27:48.775Z,72.23
2023-01-19T23:30:18.652Z,72.16
2023-01-19T23:32:52.195Z,72.74
2023-01-19T23:35:24.666Z,73.17
2023-01-19T23:37:54.273Z,72.86
2023-01-19T23:40:23.579Z,72.62
2023-01-19T23:42:52.480Z,72.08
2023-01-19T23:45:21.862Z,71.60
2023-01-19T23:47:55.371Z,72.03
2023-01-19T23:50:25.085Z,72.27
2023-01-19T23:52:54.777Z,72.57
2023-01-19T23:55:24.314Z,72.54
2023-01-19T23:57:55.856Z,72.68
